Disclaimer

Please do not use the information listed here in-flight or in-navigation, as they are not provided to us by the airports but are provided by volunteers, so they might be outdated.

Search


Regions


Airport information page

Radio informations:
MONTERREY TWR - 118.1 MHz
Ground (GND) - 121.9 MHz
Automatic Terminal Information Service (ATIS) - 127.7 MHz
MONTERREY APP - 119.75 MHz

Airport informations:
Latitude: 25° 46' 42.56" N
Longitude: 100° 06' 24.76" W
Elevation: 1278 feet - 390 meters
Operating hours: 24 hour operations
Operating agency: Civil government, landing fees and diplomatic clearance may be required
Timezone: UTC-6(-5DT) - First Sunday in April to the last Saturday in October
Fuel: 100/130 octane gasoline, leaded, MIL-L-5572F (GREEN)

Runway information:
11/29 - 9843 x 148 feet< - >3000 x 45 meters
16/34 - 5909 x 98 feet< - >1801 x 30 meters

Recent METARs:
MMMY 191540Z 32008KT 2SM BR BKN005 OVC012 11/10 A3017 RMK 8/5// -DZ INTMT
MMMY 191540Z 32008KT 2SM BR BKN005 OVC012 11/10 A3017 RMK 8/5// -DZ INTMT
MMMY 191640Z 33008KT 5SM BKN008 OVC013 12/11 A3017 RMK 8/5// -DZ INTMT

Airport on the map: